Hobbema, Canada
Current Conditions -  °F | °C
As of 3:00 PM on Thursday 23 Oct 2014 (Local Time) from CYEG Reporting Station
Scattered Clouds Scattered Clouds  
Wind Chill: 17°   Ceiling: Unl
Heat Index: 17°   Visibility: 15mi
Dew Point: -3°   Wind: 20mph
Humidity: 26%   Direction: 280°W
Pressure: 29.44"   Gusts: 31mph
Location:  52.83°N, 113.45°W
Report Text: CYEG 232100Z 28017G27KT 15SM FEW080 FEW130 SCT220 17/M03 A2944 RMK CU1AC1CI3 CU TR VIA CYYC SLP980 DENSITY ALT 3700FT
Loading
Personal Weather Stations






























Interactive Weather Map
Tropical Storm Tracking
New forecast layout! Learn more

10-Day Weather Forecast

Advertisements
Track Severe Weather on mobile